Time;durP1;ratioP1;P1;durP2;ratioP2;P2;SDS_P1;SDS_P2;PMS_P1;PMS_P2;Temp;Humidity;BMP_temperature;BMP_pressure;BME280_temperature;BME280_humidity;BME280_pressure;Samples;Min_cycle;Max_cycle;Signal;HPM_P1;HPM_P2
2022/01/18 00:00:08;;;;;;;7.15;3.03;;;15.70;91.60;;;;;;5032641;28;20495;-47
2022/01/18 00:02:34;;;;;;;8.87;2.67;;;;;;;;;;5031893;28;20538;-47
2022/01/18 00:05:00;;;;;;;8.23;2.55;;;;;;;;;;5032438;28;20025;-47
2022/01/18 00:07:26;;;;;;;7.90;2.72;;;;;;;;;;5032159;28;20080;-49
2022/01/18 00:09:52;;;;;;;10.05;2.63;;;;;;;;;;5032072;28;20538;-47
2022/01/18 00:12:43;;;;;;;9.63;2.60;;;;;;;;;;5032133;28;20105;-47
2022/01/18 00:17:53;;;;;;;8.65;2.72;;;;;;;;;;5032377;28;20059;-47
2022/01/18 00:20:26;;;;;;;9.38;2.95;;;;;;;;;;5032055;28;20028;-46
2022/01/18 00:22:52;;;;;;;9.48;2.85;;;;;;;;;;5031373;28;20506;-46
2022/01/18 00:25:18;;;;;;;9.20;2.83;;;;;;;;;;5032114;28;20029;-47
2022/01/18 00:27:44;;;;;;;7.75;2.47;;;;;;;;;;5031982;28;20459;-48
2022/01/18 00:32:58;;;;;;;10.65;3.42;;;;;;;;;;5032237;28;20057;-49
2022/01/18 00:35:26;;;;;;;9.10;2.80;;;;;;;;;;5032169;28;20033;-47
2022/01/18 00:37:55;;;;;;;11.00;3.08;;;;;;;;;;5032156;28;20074;-48
2022/01/18 00:40:21;;;;;;;6.70;2.53;;;;;;;;;;5031788;28;20025;-47
2022/01/18 00:42:47;;;;;;;7.13;2.30;;;;;;;;;;5031781;28;20054;-46
2022/01/18 00:45:13;;;;;;;8.85;2.72;;;;;;;;;;5031712;28;20029;-47
2022/01/18 00:47:39;;;;;;;4.65;1.98;;;;;;;;;;5031709;28;20099;-48
2022/01/18 00:50:05;;;;;;;6.78;2.25;;;;;;;;;;5031634;28;20032;-48
2022/01/18 00:52:36;;;;;;;9.85;2.88;;;15.40;91.50;;;;;;5031661;28;20107;-48
2022/01/18 00:55:03;;;;;;;9.25;2.80;;;;;;;;;;5031969;28;20105;-48
2022/01/18 00:57:29;;;;;;;10.07;3.42;;;;;;;;;;5031718;28;20030;-47
2022/01/18 00:59:55;;;;;;;10.55;2.83;;;;;;;;;;5031625;28;20068;-48
2022/01/18 01:02:21;;;;;;;9.40;3.58;;;;;;;;;;5031219;28;20057;-47
2022/01/18 01:04:48;;;;;;;7.07;2.58;;;;;;;;;;5031612;28;20041;-47
2022/01/18 01:07:20;;;;;;;8.95;2.85;;;15.30;87.60;;;;;;5031556;28;20029;-47
2022/01/18 01:09:46;;;;;;;6.88;2.50;;;;;;;;;;5031558;28;20099;-47
2022/01/18 01:12:13;;;;;;;9.07;2.70;;;;;;;;;;5031526;28;20068;-47
2022/01/18 01:14:40;;;;;;;8.73;2.58;;;;;;;;;;5031902;28;20022;-47
2022/01/18 01:17:19;;;;;;;8.15;2.78;;;;;;;;;;5031529;28;20345;-47
2022/01/18 01:31:59;;;;;;;7.05;2.67;;;;;;;;;;5031490;28;20021;-46
2022/01/18 01:33:58;;;;;;;8.30;3.15;;;;;;;;;;5031769;28;20052;-47
2022/01/18 01:36:48;;;;;;;8.95;2.67;;;;;;;;;;5034919;28;20037;-47
2022/01/18 01:42:02;;;;;;;6.40;2.15;;;15.20;91.70;;;;;;5034953;28;20415;-47
2022/01/18 01:44:44;;;;;;;6.82;1.98;;;;;;;;;;5034764;28;20207;-47
2022/01/18 01:47:11;;;;;;;4.68;1.85;;;15.20;91.10;;;;;;5035020;28;20040;-47
2022/01/18 01:49:38;;;;;;;6.88;2.40;;;;;;;;;;5034758;28;20021;-49
2022/01/18 01:52:09;;;;;;;9.15;2.72;;;15.20;91.70;;;;;;5035012;28;20373;-47
2022/01/18 01:54:35;;;;;;;8.02;2.70;;;;;;;;;;5034865;28;20025;-49
2022/01/18 01:57:01;;;;;;;6.35;1.98;;;;;;;;;;5035181;28;20624;-48
2022/01/18 01:59:27;;;;;;;5.68;2.40;;;;;;;;;;5034822;28;20492;-49
2022/01/18 02:01:53;;;;;;;7.85;2.65;;;;;;;;;;5034423;28;20029;-49
2022/01/18 02:04:19;;;;;;;6.78;2.33;;;;;;;;;;5034749;28;20494;-48
2022/01/18 02:06:45;;;;;;;6.95;2.13;;;;;;;;;;5034700;28;20034;-48
2022/01/18 02:09:11;;;;;;;5.40;2.25;;;;;;;;;;5034653;28;20022;-48
2022/01/18 02:11:37;;;;;;;6.25;1.98;;;;;;;;;;5034630;28;20550;-49
2022/01/18 02:14:05;;;;;;;5.78;2.13;;;;;;;;;;5034541;28;20049;-48
2022/01/18 02:22:05;;;;;;;7.47;1.98;;;;;;;;;;5034396;28;20059;-49
2022/01/18 02:24:31;;;;;;;7.43;2.10;;;;;;;;;;5034302;28;20037;-49
2022/01/18 02:26:57;;;;;;;5.38;1.98;;;;;;;;;;5034356;28;20058;-48
2022/01/18 02:29:23;;;;;;;6.90;1.95;;;;;;;;;;5034263;28;20030;-49
2022/01/18 02:31:51;;;;;;;5.65;2.17;;;;;;;;;;5034469;28;20420;-49
2022/01/18 02:34:19;;;;;;;6.60;2.78;;;15.00;92.10;;;;;;5034139;28;20022;-50
2022/01/18 02:36:45;;;;;;;5.53;2.00;;;;;;;;;;5034444;28;20416;-48
2022/01/18 02:39:11;;;;;;;8.98;2.83;;;;;;;;;;5034080;28;20021;-50
2022/01/18 02:41:38;;;;;;;8.18;2.38;;;15.00;90.80;;;;;;5033876;28;20037;-48
2022/01/18 02:44:10;;;;;;;5.93;2.00;;;15.10;92.10;;;;;;5034324;28;20372;-48
2022/01/18 02:46:36;;;;;;;4.57;1.58;;;;;;;;;;5033452;28;20029;-49
2022/01/18 02:49:03;;;;;;;6.60;2.00;;;;;;;;;;5033962;28;20542;-48
2022/01/18 02:51:29;;;;;;;5.75;2.08;;;;;;;;;;5033781;28;20040;-49
2022/01/18 02:54:03;;;;;;;5.47;2.30;;;;;;;;;;5033829;28;20049;-48
2022/01/18 02:56:35;;;;;;;6.40;2.50;;;14.90;91.80;;;;;;5033925;28;20041;-48
2022/01/18 02:59:13;;;;;;;6.88;2.55;;;14.80;90.20;;;;;;5034017;28;20017;-49
2022/01/18 03:04:24;;;;;;;5.72;2.20;;;;;;;;;;5033860;28;20040;-49
2022/01/18 03:06:50;;;;;;;7.35;2.47;;;;;;;;;;5033607;28;20033;-48
2022/01/18 03:09:16;;;;;;;4.47;2.17;;;;;;;;;;5033505;28;20090;-48
2022/01/18 03:11:42;;;;;;;7.35;2.40;;;;;;;;;;5033632;28;20033;-49
2022/01/18 03:14:08;;;;;;;5.30;1.85;;;;;;;;;;5033418;28;20055;-48
2022/01/18 03:16:34;;;;;;;5.05;1.92;;;;;;;;;;5033363;28;20037;-47
2022/01/18 03:19:00;;;;;;;5.07;1.95;;;;;;;;;;5033576;28;20028;-49
2022/01/18 03:21:26;;;;;;;4.25;2.20;;;;;;;;;;5033431;28;20131;-48
2022/01/18 03:23:59;;;;;;;8.23;2.45;;;;;;;;;;5033247;28;20068;-49
2022/01/18 03:26:32;;;;;;;7.50;2.53;;;;;;;;;;5033374;28;20033;-46
2022/01/18 03:28:58;;;;;;;5.88;2.15;;;;;;;;;;5032846;28;20033;-47
2022/01/18 03:31:24;;;;;;;6.97;2.22;;;;;;;;;;5032782;28;20031;-46
2022/01/18 03:33:50;;;;;;;4.68;1.85;;;;;;;;;;5032755;28;20030;-47
2022/01/18 03:36:16;;;;;;;7.72;2.40;;;;;;;;;;5032718;28;20467;-47
2022/01/18 03:38:42;;;;;;;5.28;1.88;;;;;;;;;;5032548;28;20044;-46
2022/01/18 03:41:08;;;;;;;6.32;2.20;;;;;;;;;;5032553;28;20038;-46
2022/01/18 03:43:35;;;;;;;7.15;1.80;;;;;;;;;;5032633;28;20100;-48
2022/01/18 03:46:04;;;;;;;6.70;2.42;;;14.70;91.60;;;;;;5032610;28;20104;-48
2022/01/18 03:48:33;;;;;;;4.88;2.17;;;;;;;;;;5033003;28;20029;-48
2022/01/18 03:51:01;;;;;;;6.47;2.10;;;;;;;;;;5032775;28;20045;-49
2022/01/18 03:53:27;;;;;;;7.90;2.40;;;;;;;;;;5032931;28;20025;-48
2022/01/18 03:55:53;;;;;;;7.85;2.35;;;14.70;91.10;;;;;;5032629;28;20044;-48
2022/01/18 03:58:19;;;;;;;3.53;1.80;;;;;;;;;;5031825;28;20026;-48
2022/01/18 04:00:45;;;;;;;6.18;2.10;;;;;;;;;;5032539;28;20037;-48
2022/01/18 04:03:12;;;;;;;4.05;1.77;;;;;;;;;;5032432;28;20060;-49
2022/01/18 04:05:38;;;;;;;6.20;2.08;;;;;;;;;;5032500;28;20036;-49
2022/01/18 04:08:05;;;;;;;5.68;1.80;;;14.70;92.00;;;;;;5032466;28;20029;-50
2022/01/18 04:10:31;;;;;;;7.60;2.40;;;14.70;91.20;;;;;;5031262;28;20029;-49
2022/01/18 04:12:58;;;;;;;7.30;2.25;;;;;;;;;;5032411;28;20029;-49
2022/01/18 04:15:25;;;;;;;6.35;2.28;;;;;;;;;;5032410;28;20387;-49
2022/01/18 04:26:55;;;;;;;3.67;1.95;;;;;;;;;;5032532;28;20024;-48
2022/01/18 04:28:53;;;;;;;8.02;2.42;;;14.60;92.10;;;;;;5032043;28;20040;-50
2022/01/18 04:31:19;;;;;;;5.32;1.95;;;;;;;;;;5032188;28;20028;-48
2022/01/18 04:33:45;;;;;;;5.63;1.98;;;;;;;;;;5032358;28;20025;-48
2022/01/18 04:36:11;;;;;;;4.53;1.88;;;;;;;;;;5032165;28;20033;-48
2022/01/18 04:38:37;;;;;;;6.07;2.03;;;;;;;;;;5032173;28;20025;-48
2022/01/18 04:41:10;;;;;;;5.07;2.22;;;;;;;;;;5032015;28;20036;-49
2022/01/18 04:49:05;;;;;;;3.20;1.70;;;14.50;92.10;;;;;;5032074;28;20091;-48
2022/01/18 04:51:31;;;;;;;3.60;1.80;;;;;;;;;;5031951;28;20018;-49
2022/01/18 04:53:59;;;;;;;5.15;1.92;;;;;;;;;;5031898;28;20075;-48
2022/01/18 04:58:57;;;;;;;4.43;2.05;;;;;;;;;;5032045;28;20526;-49
2022/01/18 05:01:23;;;;;;;5.03;2.13;;;;;;;;;;5031686;28;20430;-48
2022/01/18 05:03:49;;;;;;;3.47;1.88;;;;;;;;;;5031745;28;20454;-50
2022/01/18 05:06:17;;;;;;;3.28;1.60;;;;;;;;;;5031827;28;20160;-50
2022/01/18 05:08:43;;;;;;;4.28;1.60;;;;;;;;;;5032835;28;20026;-49
2022/01/18 05:11:14;;;;;;;4.60;2.50;;;14.60;92.30;;;;;;5035623;28;20068;-49
2022/01/18 05:19:24;;;;;;;5.50;2.03;;;14.50;92.30;;;;;;5014408;28;20029;-49
2022/01/18 05:24:20;;;;;;;6.63;1.83;;;;;;;;;;5035520;28;20399;-48
2022/01/18 05:26:46;;;;;;;3.42;1.88;;;;;;;;;;5035737;28;20040;-49
2022/01/18 05:29:11;;;;;;;3.63;1.58;;;;;;;;;;5035393;28;20022;-49
2022/01/18 05:31:38;;;;;;;4.55;1.70;;;;;;;;;;5035404;28;20025;-49
2022/01/18 05:34:04;;;;;;;3.92;1.85;;;;;;;;;;5035371;28;20021;-49
2022/01/18 05:36:31;;;;;;;3.03;1.80;;;;;;;;;;5035266;28;20099;-49
2022/01/18 05:38:57;;;;;;;4.03;2.10;;;;;;;;;;5035250;28;20052;-49
2022/01/18 05:41:23;;;;;;;3.28;1.65;;;;;;;;;;5035084;28;20037;-49
2022/01/18 05:43:49;;;;;;;4.03;1.75;;;;;;;;;;5035164;28;20389;-49
2022/01/18 05:46:15;;;;;;;4.30;1.85;;;;;;;;;;5035115;28;20107;-49
2022/01/18 05:48:41;;;;;;;3.00;1.63;;;;;;;;;;5035111;28;20491;-49
2022/01/18 05:51:07;;;;;;;3.92;1.67;;;;;;;;;;5035077;28;20029;-48
2022/01/18 05:53:39;;;;;;;4.32;1.33;;;14.40;92.30;;;;;;5035018;28;20118;-49
2022/01/18 05:56:05;;;;;;;3.15;1.67;;;;;;;;;;5035198;28;20087;-49
2022/01/18 05:58:31;;;;;;;3.65;2.03;;;;;;;;;;5034795;28;20036;-48
2022/01/18 06:00:57;;;;;;;3.75;1.88;;;;;;;;;;5034727;28;20030;-50
2022/01/18 06:03:33;;;;;;;2.75;1.48;;;14.50;91.80;;;;;;5034559;28;20416;-48
2022/01/18 06:08:44;;;;;;;3.85;1.50;;;;;;;;;;5035042;28;20040;-48
2022/01/18 06:11:10;;;;;;;4.68;1.73;;;;;;;;;;5034779;28;20051;-47
2022/01/18 06:13:36;;;;;;;2.45;1.30;;;;;;;;;;5034581;28;20030;-48
2022/01/18 06:16:03;;;;;;;2.90;1.80;;;;;;;;;;5034799;28;20026;-49
2022/01/18 06:18:29;;;;;;;2.70;1.58;;;;;;;;;;5034473;28;20084;-49
2022/01/18 06:20:55;;;;;;;2.00;1.15;;;;;;;;;;5033292;28;20041;-49
2022/01/18 06:23:21;;;;;;;3.60;1.42;;;15.00;92.10;;;;;;5034069;28;20072;-49
2022/01/18 06:25:47;;;;;;;4.35;1.40;;;;;;;;;;5034210;28;20029;-49
2022/01/18 06:28:13;;;;;;;3.17;1.70;;;;;;;;;;5034271;28;20396;-49
2022/01/18 06:30:39;;;;;;;2.17;1.08;;;;;;;;;;5034276;28;20033;-49
2022/01/18 06:33:05;;;;;;;3.33;1.70;;;;;;;;;;5034141;28;20025;-49
2022/01/18 06:35:31;;;;;;;2.40;1.50;;;;;;;;;;5034084;28;20025;-49
2022/01/18 06:37:57;;;;;;;2.13;1.40;;;;;;;;;;5034087;28;20480;-49
2022/01/18 06:40:25;;;;;;;2.05;1.20;;;;;;;;;;5033989;28;20036;-49
2022/01/18 06:42:51;;;;;;;1.98;1.13;;;;;;;;;;5034007;28;20425;-48
2022/01/18 06:45:17;;;;;;;1.88;1.05;;;;;;;;;;5034030;28;20025;-49
2022/01/18 06:47:43;;;;;;;1.70;1.42;;;;;;;;;;5033981;28;20056;-48
2022/01/18 06:50:12;;;;;;;1.85;1.23;;;15.10;90.50;;;;;;5033896;28;20021;-49
2022/01/18 06:52:38;;;;;;;1.80;1.30;;;;;;;;;;5033794;28;20483;-50
2022/01/18 06:55:06;;;;;;;2.78;1.92;;;15.10;90.50;;;;;;5033764;28;20048;-47
2022/01/18 06:57:32;;;;;;;4.40;1.35;;;;;;;;;;5033650;28;20075;-47
2022/01/18 06:59:58;;;;;;;2.28;1.23;;;;;;;;;;5033652;28;20468;-48
2022/01/18 07:02:24;;;;;;;1.60;1.25;;;;;;;;;;5033312;28;20042;-47
2022/01/18 07:04:50;;;;;;;1.73;1.27;;;;;;;;;;5033707;28;20036;-47
2022/01/18 07:07:16;;;;;;;2.17;1.50;;;;;;;;;;5033545;28;20025;-47
2022/01/18 07:09:44;;;;;;;2.28;1.35;;;;;;;;;;5033464;28;20065;-47
2022/01/18 07:12:11;;;;;;;1.73;1.20;;;;;;;;;;5033709;28;20112;-47
2022/01/18 07:14:37;;;;;;;1.77;1.20;;;;;;;;;;5033129;28;20034;-47
2022/01/18 07:17:03;;;;;;;2.65;1.20;;;;;;;;;;5033088;28;20423;-47
2022/01/18 07:19:32;;;;;;;1.45;1.02;;;;;;;;;;5032934;28;20029;-47
2022/01/18 07:21:58;;;;;;;1.42;1.10;;;;;;;;;;5033206;28;20503;-48
2022/01/18 07:24:44;;;;;;;1.58;1.20;;;;;;;;;;5033185;28;20026;-48
2022/01/18 07:27:11;;;;;;;1.30;1.10;;;;;;;;;;5033493;28;20052;-47
2022/01/18 07:29:38;;;;;;;3.55;1.30;;;;;;;;;;5033148;28;20029;-48
2022/01/18 07:32:04;;;;;;;2.75;1.30;;;;;;;;;;5032955;28;20506;-47
2022/01/18 07:34:32;;;;;;;3.30;1.50;;;;;;;;;;5033067;28;20104;-47
2022/01/18 07:36:58;;;;;;;1.92;1.13;;;;;;;;;;5033105;28;20430;-48
2022/01/18 07:39:24;;;;;;;2.25;1.38;;;;;;;;;;5033052;28;20021;-47
2022/01/18 07:41:50;;;;;;;4.05;1.58;;;;;;;;;;5032918;28;20095;-47
2022/01/18 07:44:16;;;;;;;2.38;1.35;;;;;;;;;;5032992;28;20033;-47
2022/01/18 07:46:42;;;;;;;2.35;1.42;;;;;;;;;;5032906;28;20479;-47
2022/01/18 07:49:08;;;;;;;1.60;1.23;;;;;;;;;;5033149;28;20026;-47
2022/01/18 07:51:34;;;;;;;4.00;1.67;;;;;;;;;;5032854;28;20495;-47
2022/01/18 07:54:00;;;;;;;2.10;1.65;;;;;;;;;;5032807;28;20029;-47
2022/01/18 07:56:26;;;;;;;2.45;1.40;;;;;;;;;;5032730;28;20033;-46
2022/01/18 07:58:52;;;;;;;4.47;1.67;;;;;;;;;;5032685;28;20029;-47
2022/01/18 08:01:19;;;;;;;2.90;1.30;;;;;;;;;;5032638;28;20061;-47
2022/01/18 08:03:45;;;;;;;3.38;1.02;;;;;;;;;;5032361;28;20053;-47
2022/01/18 08:06:11;;;;;;;2.15;1.27;;;;;;;;;;5032617;28;20029;-47
2022/01/18 08:08:39;;;;;;;3.67;1.33;;;;;;;;;;5032548;28;20108;-47
2022/01/18 08:11:05;;;;;;;2.25;1.35;;;;;;;;;;5032510;28;20510;-46
2022/01/18 08:13:38;;;;;;;2.00;1.60;;;;;;;;;;5032694;28;20391;-46
2022/01/18 08:16:47;;;;;;;2.92;1.60;;;;;;;;;;5032527;28;20029;-47
2022/01/18 08:18:59;;;;;;;1.98;1.13;;;14.40;92.90;;;;;;5031373;28;20460;-47
2022/01/18 08:21:25;;;;;;;2.15;1.40;;;;;;;;;;5032267;28;20403;-48
2022/01/18 08:23:50;;;;;;;1.85;1.42;;;;;;;;;;5032251;28;20524;-47
2022/01/18 08:26:17;;;;;;;2.47;1.48;;;;;;;;;;5032306;28;20104;-47
2022/01/18 08:28:43;;;;;;;4.05;1.73;;;;;;;;;;5032273;28;20029;-46
2022/01/18 08:31:09;;;;;;;2.70;1.80;;;;;;;;;;5032234;28;20525;-47
2022/01/18 08:33:35;;;;;;;3.13;1.60;;;;;;;;;;5032237;28;20022;-48
2022/01/18 08:36:03;;;;;;;2.90;1.73;;;;;;;;;;5032180;28;20029;-47
2022/01/18 08:38:29;;;;;;;2.40;1.83;;;;;;;;;;5032325;28;20499;-48
2022/01/18 08:40:56;;;;;;;3.55;1.98;;;;;;;;;;5032049;28;20033;-46
2022/01/18 08:43:22;;;;;;;4.88;1.65;;;;;;;;;;5032416;28;20048;-46
2022/01/18 08:45:48;;;;;;;2.47;2.10;;;;;;;;;;5036217;28;20025;-47
2022/01/18 08:48:14;;;;;;;3.30;1.67;;;;;;;;;;5036112;28;20109;-47
2022/01/18 08:50:40;;;;;;;4.97;2.03;;;;;;;;;;5036051;28;20100;-47
2022/01/18 08:53:06;;;;;;;2.17;1.75;;;;;;;;;;5036105;28;20025;-47
2022/01/18 08:55:34;;;;;;;2.78;1.95;;;;;;;;;;5036183;28;20033;-47
2022/01/18 08:58:00;;;;;;;3.17;2.13;;;;;;;;;;5036029;28;20092;-47
2022/01/18 09:00:26;;;;;;;2.50;1.88;;;;;;;;;;5036011;28;20033;-47
2022/01/18 09:02:52;;;;;;;3.10;1.50;;;;;;;;;;5035559;28;20531;-47
2022/01/18 09:05:22;;;;;;;2.03;1.50;;;;;;;;;;5035880;28;20056;-47
2022/01/18 09:07:48;;;;;;;3.97;2.20;;;;;;;;;;5036460;28;20029;-47
2022/01/18 09:10:14;;;;;;;2.97;2.00;;;;;;;;;;5035786;28;20037;-47
2022/01/18 09:12:40;;;;;;;3.42;1.95;;;;;;;;;;5036095;28;20029;-47
2022/01/18 09:15:07;;;;;;;3.17;1.92;;;14.50;93.20;;;;;;5035652;28;20391;-48
2022/01/18 09:17:34;;;;;;;4.43;1.95;;;14.40;91.40;;;;;;5035684;28;20014;-46
2022/01/18 09:20:05;;;;;;;3.28;1.80;;;;;;;;;;5035646;28;20036;-47
2022/01/18 09:22:32;;;;;;;2.90;1.92;;;;;;;;;;5035318;28;20120;-47
2022/01/18 09:24:58;;;;;;;2.45;1.60;;;;;;;;;;5035349;28;20022;-48
2022/01/18 09:27:24;;;;;;;2.70;1.80;;;;;;;;;;5035326;28;20033;-46
2022/01/18 09:29:50;;;;;;;1.98;1.50;;;;;;;;;;5035234;28;20029;-47
2022/01/18 09:32:16;;;;;;;2.53;1.90;;;;;;;;;;5035262;28;20033;-46
2022/01/18 09:34:42;;;;;;;4.00;1.73;;;;;;;;;;5035249;28;20029;-47
2022/01/18 09:37:08;;;;;;;4.35;2.35;;;;;;;;;;5035075;28;20040;-48
2022/01/18 09:39:34;;;;;;;4.10;1.95;;;;;;;;;;5035091;28;20095;-48
2022/01/18 09:42:04;;;;;;;2.75;1.80;;;15.00;92.30;;;;;;5035137;28;20037;-47
2022/01/18 09:44:30;;;;;;;5.00;2.42;;;;;;;;;;5035267;28;20022;-47
2022/01/18 09:46:56;;;;;;;4.55;1.92;;;;;;;;;;5035035;28;20083;-47
2022/01/18 09:49:24;;;;;;;2.72;1.90;;;;;;;;;;5035065;28;20059;-48
2022/01/18 09:51:50;;;;;;;3.25;1.90;;;15.00;90.70;;;;;;5035050;28;20033;-48
2022/01/18 09:54:17;;;;;;;4.63;1.92;;;;;;;;;;5034708;28;20033;-47
2022/01/18 09:56:43;;;;;;;5.82;3.00;;;;;;;;;;5033334;28;20033;-46
2022/01/18 09:59:09;;;;;;;6.15;1.95;;;;;;;;;;5034838;28;20049;-47
2022/01/18 10:01:35;;;;;;;5.65;2.25;;;;;;;;;;5034761;28;20484;-47
2022/01/18 10:04:18;;;;;;;6.50;2.40;;;15.00;89.00;;;;;;5034663;28;20048;-47
2022/01/18 10:06:46;;;;;;;4.72;2.30;;;15.00;92.40;;;;;;5035039;28;20036;-48
2022/01/18 10:09:13;;;;;;;5.45;2.60;;;;;;;;;;5034709;28;20038;-47
2022/01/18 10:12:13;;;;;;;5.30;2.45;;;15.00;88.90;;;;;;5034555;28;20384;-48
2022/01/18 10:14:50;;;;;;;5.05;2.60;;;14.90;88.70;;;;;;5034851;28;20171;-47
2022/01/18 10:17:40;;;;;;;6.03;2.95;;;14.80;92.30;;;;;;5034522;28;20032;-48
2022/01/18 10:20:09;;;;;;;9.73;3.43;;;14.70;92.30;;;;;;5034932;28;20428;-46
2022/01/18 10:22:43;;;;;;;7.72;2.70;;;14.70;92.30;;;;;;5034379;28;20040;-47
2022/01/18 10:25:14;;;;;;;6.70;2.33;;;14.60;89.30;;;;;;5034757;28;20017;-47
2022/01/18 10:27:39;;;;;;;;;;;14.70;92.60;;;;;;5035136;28;20392;-47
2022/01/18 10:30:09;;;;;;;6.88;3.00;;;14.70;92.30;;;;;;5034345;28;19912;-47
2022/01/18 10:32:40;;;;;;;9.23;3.30;;;;;;;;;;5034505;28;20021;-48
2022/01/18 10:35:08;;;;;;;8.55;3.47;;;;;;;;;;5034515;28;20029;-46
2022/01/18 10:37:35;;;;;;;10.13;3.38;;;;;;;;;;5034115;28;20029;-47
2022/01/18 10:40:06;;;;;;;9.45;3.45;;;14.60;92.60;;;;;;5034071;28;20396;-47
2022/01/18 10:42:41;;;;;;;5.47;2.90;;;14.60;92.70;;;;;;5034297;28;20034;-46
2022/01/18 10:45:14;;;;;;;7.93;3.38;;;14.60;89.80;;;;;;5034101;28;20483;-47
2022/01/18 10:48:03;;;;;;;8.30;3.17;;;14.50;89.80;;;;;;5034012;28;20057;-47
2022/01/18 10:50:34;;;;;;;7.40;2.88;;;14.50;89.70;;;;;;5034178;28;20434;-47
2022/01/18 10:53:18;;;;;;;8.43;2.75;;;14.50;90.00;;;;;;5033970;28;20119;-47
2022/01/18 10:55:45;;;;;;;6.82;3.33;;;14.50;92.90;;;;;;5033457;28;20100;-47
2022/01/18 10:58:20;;;;;;;8.00;2.95;;;14.50;90.10;;;;;;5033571;28;20480;-47
2022/01/18 11:00:46;;;;;;;9.07;3.05;;;;;;;;;;5033759;28;20384;-47
2022/01/18 11:03:12;;;;;;;8.68;3.03;;;;;;;;;;5033351;28;20060;-46
2022/01/18 11:05:40;;;;;;;8.45;2.63;;;14.50;92.30;;;;;;5033491;28;20026;-47
2022/01/18 11:08:06;;;;;;;6.05;2.65;;;;;;;;;;5033102;28;20391;-47
2022/01/18 11:10:41;;;;;;;7.80;2.78;;;14.50;93.20;;;;;;5033450;28;20578;-47
2022/01/18 11:13:10;;;;;;;8.40;3.47;;;;;;;;;;5033473;28;20036;-47
2022/01/18 11:15:42;;;;;;;9.35;3.03;;;14.30;93.30;;;;;;5033259;28;20022;-47
2022/01/18 11:18:16;;;;;;;7.53;3.08;;;;;;;;;;5032159;28;20018;-46
2022/01/18 11:20:47;;;;;;;8.15;2.80;;;14.50;93.20;;;;;;5033469;28;20040;-48
2022/01/18 11:23:14;;;;;;;9.60;3.08;;;14.50;91.80;;;;;;5033644;28;20040;-47
2022/01/18 11:25:40;;;;;;;8.45;3.15;;;;;;;;;;5033271;28;20427;-47
2022/01/18 11:28:09;;;;;;;6.40;2.95;;;14.40;93.30;;;;;;5033163;28;20030;-46
2022/01/18 11:30:41;;;;;;;8.40;2.80;;;14.40;93.20;;;;;;5033047;28;20053;-47
2022/01/18 11:33:10;;;;;;;6.85;2.80;;;14.40;93.30;;;;;;5033086;28;20032;-46
2022/01/18 11:35:58;;;;;;;5.90;2.85;;;14.40;93.30;;;;;;5033369;28;20040;-46
2022/01/18 11:38:52;;;;;;;8.95;3.08;;;14.40;90.40;;;;;;5032985;28;20496;-47
2022/01/18 11:41:26;;;;;;;7.43;3.55;;;14.40;90.30;;;;;;5033136;28;20025;-48
2022/01/18 11:43:53;;;;;;;7.75;2.63;;;14.40;91.70;;;;;;5033503;28;20072;-47
2022/01/18 11:46:34;;;;;;;5.95;2.90;;;14.20;90.10;;;;;;5033084;28;20037;-47
2022/01/18 11:49:13;;;;;;;7.13;2.75;;;14.40;90.50;;;;;;5032796;28;20030;-47
2022/01/18 11:51:39;;;;;;;7.95;3.15;;;;;;;;;;5032804;28;20036;-47
2022/01/18 11:57:24;;;;;;;7.70;2.83;;;14.50;90.40;;;;;;5027070;28;20541;-47
2022/01/18 11:59:58;;;;;;;11.98;3.72;;;14.40;93.10;;;;;;5032635;28;20100;-47
2022/01/18 12:02:41;;;;;;;8.82;2.97;;;14.40;90.00;;;;;;5032346;28;20086;-47
2022/01/18 12:05:21;;;;;;;12.02;3.10;;;14.40;92.90;;;;;;5032841;28;20033;-47
2022/01/18 12:07:54;;;;;;;11.70;3.50;;;14.40;92.90;;;;;;5032591;28;20060;-47
2022/01/18 12:10:20;;;;;;;9.35;3.20;;;;;;;;;;5032562;28;20036;-47
2022/01/18 12:12:48;;;;;;;7.40;2.70;;;;;;;;;;5032510;28;20372;-47
2022/01/18 12:15:19;;;;;;;10.38;2.85;;;14.40;90.00;;;;;;5032538;28;20061;-47
2022/01/18 12:17:53;;;;;;;5.00;2.70;;;14.30;89.80;;;;;;5032186;28;20107;-47
2022/01/18 12:20:42;;;;;;;6.20;2.80;;;14.40;89.90;;;;;;5032088;28;20032;-48
2022/01/18 12:23:24;;;;;;;8.57;3.00;;;14.40;93.00;;;;;;5032769;28;20069;-47
2022/01/18 12:26:03;;;;;;;4.90;2.58;;;14.30;90.10;;;;;;5032652;28;20074;-47
2022/01/18 12:34:38;;;;;;;6.00;2.33;;;14.40;90.30;;;;;;5032369;28;20431;-47
2022/01/18 12:39:57;;;;;;;6.97;2.30;;;14.50;90.10;;;;;;5032461;28;20542;-47
2022/01/18 12:45:06;;;;;;;8.00;2.65;;;;;;;;;;5032502;28;20392;-48
2022/01/18 12:47:35;;;;;;;7.55;2.75;;;;;;;;;;5032161;28;20032;-47
2022/01/18 12:50:01;;;;;;;7.30;2.35;;;;;;;;;;5032298;28;20029;-47
2022/01/18 12:52:27;;;;;;;9.88;2.88;;;;;;;;;;5032055;28;20026;-48
2022/01/18 12:54:52;;;;;;;5.70;2.42;;;;;;;;;;5032117;28;20064;-47
2022/01/18 12:57:22;;;;;;;4.68;2.60;;;14.70;93.10;;;;;;5032138;28;20036;-47
2022/01/18 12:59:58;;;;;;;6.75;2.63;;;14.70;90.20;;;;;;5032679;28;20030;-48
2022/01/18 13:02:24;;;;;;;11.18;3.08;;;;;;;;;;5031889;28;20447;-48
2022/01/18 13:04:59;;;;;;;6.72;2.63;;;14.80;90.10;;;;;;5031918;28;20022;-47
2022/01/18 13:07:25;;;;;;;7.15;2.78;;;;;;;;;;5031937;28;20091;-47
2022/01/18 13:09:59;;;;;;;6.03;2.88;;;15.10;89.90;;;;;;5031938;28;20029;-47
2022/01/18 13:12:35;;;;;;;8.15;2.70;;;15.30;89.30;;;;;;5031882;28;20026;-47
2022/01/18 13:15:04;;;;;;;4.53;1.98;;;15.40;91.00;;;;;;5031965;28;20080;-48
2022/01/18 13:23:22;;;;;;;9.35;2.75;;;;;;;;;;5031909;28;20041;-47
2022/01/18 13:25:57;;;;;;;7.10;2.80;;;15.90;91.80;;;;;;5031808;28;20502;-47
2022/01/18 13:28:37;;;;;;;6.63;3.17;;;16.10;87.20;;;;;;5032058;28;20096;-48
2022/01/18 13:31:16;;;;;;;6.20;2.08;;;16.20;87.20;;;;;;5034767;28;20060;-47
2022/01/18 13:33:59;;;;;;;5.70;2.30;;;16.30;86.80;;;;;;5035444;28;20025;-47
2022/01/18 13:36:27;;;;;;;7.65;2.20;;;16.40;90.20;;;;;;5035382;28;20021;-47
2022/01/18 13:38:53;;;;;;;6.07;2.70;;;;;;;;;;5035505;28;20460;-47
2022/01/18 13:41:20;;;;;;;6.60;2.67;;;;;;;;;;5035158;28;20080;-47
2022/01/18 13:43:47;;;;;;;4.80;2.22;;;16.60;91.20;;;;;;5035185;28;20057;-47
2022/01/18 13:46:23;;;;;;;6.00;2.30;;;16.60;86.40;;;;;;5035428;28;20087;-47
2022/01/18 13:48:49;;;;;;;6.30;2.20;;;;;;;;;;5035202;28;20026;-48
2022/01/18 13:51:19;;;;;;;9.82;2.55;;;;;;;;;;5035065;28;20026;-47
2022/01/18 13:53:45;;;;;;;6.43;2.80;;;;;;;;;;5035110;28;20053;-47
2022/01/18 13:56:14;;;;;;;5.40;2.67;;;16.90;91.20;;;;;;5035219;28;20376;-48
2022/01/18 13:58:43;;;;;;;8.27;2.78;;;16.90;91.30;;;;;;5035094;28;20048;-47
2022/01/18 14:01:09;;;;;;;6.55;2.40;;;;;;;;;;5034682;28;20111;-47
2022/01/18 14:03:40;;;;;;;6.97;2.42;;;16.90;86.00;;;;;;5034710;28;20076;-48
2022/01/18 14:06:06;;;;;;;5.03;2.60;;;;;;;;;;5034975;28;20024;-48
2022/01/18 14:08:54;;;;;;;8.30;2.60;;;16.70;91.10;;;;;;5034734;28;20030;-47
2022/01/18 14:11:21;;;;;;;5.90;2.70;;;;;;;;;;5034968;28;20471;-47
2022/01/18 14:13:47;;;;;;;5.43;2.53;;;;;;;;;;5034660;28;20112;-48
2022/01/18 14:16:26;;;;;;;8.52;2.65;;;16.90;85.80;;;;;;5034580;28;20064;-47
2022/01/18 14:19:03;;;;;;;6.05;2.92;;;16.90;90.70;;;;;;5034545;28;20052;-47
2022/01/18 14:21:49;;;;;;;9.25;2.90;;;17.00;85.30;;;;;;5034441;28;20033;-48
2022/01/18 14:24:18;;;;;;;4.18;2.47;;;17.00;90.70;;;;;;5034685;28;20029;-47
2022/01/18 14:26:53;;;;;;;6.43;3.10;;;17.00;84.80;;;;;;5034284;28;20040;-47
2022/01/18 14:29:21;;;;;;;7.18;2.88;;;17.10;90.70;;;;;;5034582;28;20032;-47
2022/01/18 14:32:25;;;;;;;5.68;2.75;;;17.00;84.90;;;;;;5034279;28;20057;-49
2022/01/18 14:34:56;;;;;;;6.10;2.60;;;17.10;90.50;;;;;;5025212;28;20419;-48
2022/01/18 14:37:37;;;;;;;6.00;2.40;;;17.10;90.60;;;;;;5034607;28;20423;-47
2022/01/18 14:40:07;;;;;;;7.18;2.92;;;17.10;90.60;;;;;;5034182;28;20021;-49
2022/01/18 14:42:40;;;;;;;5.93;2.42;;;;;;;;;;5033143;28;20068;-48
2022/01/18 14:47:42;;;;;;;5.50;2.63;;;17.20;90.80;;;;;;5034023;28;20036;-47
2022/01/18 14:50:14;;;;;;;6.03;2.38;;;17.10;90.80;;;;;;5033882;28;20021;-48
2022/01/18 14:52:40;;;;;;;7.05;3.05;;;;;;;;;;5033787;28;20063;-48
2022/01/18 14:55:07;;;;;;;6.30;3.03;;;;;;;;;;5033877;28;20033;-48
2022/01/18 14:57:33;;;;;;;5.18;2.47;;;;;;;;;;5034197;28;20029;-48
2022/01/18 15:00:01;;;;;;;8.15;3.47;;;;;;;;;;5033959;28;20353;-48
2022/01/18 15:02:27;;;;;;;8.40;3.05;;;;;;;;;;5033459;28;20045;-48
2022/01/18 15:04:53;;;;;;;11.82;2.75;;;;;;;;;;5033929;28;20246;-48
2022/01/18 15:07:19;;;;;;;5.45;2.70;;;;;;;;;;5033586;28;20213;-48
2022/01/18 15:09:45;;;;;;;9.65;2.63;;;;;;;;;;5033410;28;20318;-49
2022/01/18 15:12:11;;;;;;;7.80;3.28;;;;;;;;;;5033449;28;20309;-48
2022/01/18 15:14:37;;;;;;;7.45;3.25;;;;;;;;;;5033285;28;20033;-48
2022/01/18 15:17:03;;;;;;;4.47;2.30;;;;;;;;;;5033299;28;20033;-48
2022/01/18 15:19:30;;;;;;;9.43;2.92;;;;;;;;;;5033417;28;20029;-49
2022/01/18 15:21:56;;;;;;;6.50;2.63;;;;;;;;;;5033180;28;20042;-48
2022/01/18 15:24:22;;;;;;;7.32;3.33;;;;;;;;;;5033248;28;20021;-48
2022/01/18 15:26:49;;;;;;;8.07;3.10;;;;;;;;;;5033119;28;20029;-49
2022/01/18 15:29:15;;;;;;;8.95;2.63;;;;;;;;;;5033236;28;20109;-48
2022/01/18 15:31:41;;;;;;;5.75;2.70;;;;;;;;;;5032947;28;20033;-49